createdAt,value
2019-04-28T00:01:41.098Z,99.90
2019-04-28T00:04:08.744Z,99.90
2019-04-28T00:06:36.190Z,99.90
2019-04-28T00:09:05.534Z,99.90
2019-04-28T00:11:33.012Z,99.90
2019-04-28T00:14:01.918Z,99.90
2019-04-28T00:16:31.157Z,99.90
2019-04-28T00:18:58.702Z,99.90
2019-04-28T00:21:45.056Z,99.90
2019-04-28T00:24:35.047Z,99.90
2019-04-28T00:27:04.795Z,99.90
2019-04-28T00:29:40.299Z,99.90
2019-04-28T00:32:01.541Z,99.90
2019-04-28T00:34:31.145Z,99.90
2019-04-28T00:37:03.940Z,99.90
2019-04-28T00:39:31.371Z,99.90
2019-04-28T00:41:58.862Z,99.90
2019-04-28T00:44:26.763Z,99.90
2019-04-28T00:46:54.234Z,99.90
2019-04-28T00:49:41.795Z,99.90
2019-04-28T00:52:11.163Z,99.90
2019-04-28T00:54:38.570Z,99.90
2019-04-28T00:57:06.034Z,99.90
2019-04-28T00:59:33.470Z,99.90
2019-04-28T01:02:04.932Z,99.90
2019-04-28T01:04:32.756Z,99.90
2019-04-28T01:07:01.638Z,99.90
2019-04-28T01:09:29.239Z,99.90
2019-04-28T01:11:56.666Z,99.90
2019-04-28T01:14:24.101Z,99.90
2019-04-28T01:17:09.805Z,99.90
2019-04-28T01:19:39.861Z,99.90
2019-04-28T01:22:19.985Z,99.90
2019-04-28T01:24:47.259Z,99.90
2019-04-28T01:27:50.503Z,99.90
2019-04-28T01:30:41.627Z,99.90
2019-04-28T01:33:43.945Z,99.90
2019-04-28T01:36:11.509Z,99.90
2019-04-28T01:38:40.152Z,99.90
2019-04-28T01:41:09.845Z,99.90
2019-04-28T01:43:56.867Z,99.90
2019-04-28T01:46:24.340Z,99.90
2019-04-28T01:48:51.820Z,99.90
2019-04-28T01:51:20.830Z,99.90
2019-04-28T01:53:50.319Z,99.90
2019-04-28T01:56:17.712Z,99.90
2019-04-28T01:58:45.408Z,99.90
2019-04-28T02:01:12.827Z,99.90
2019-04-28T02:03:40.524Z,99.90
2019-04-28T02:06:09.937Z,99.90
2019-04-28T02:08:37.575Z,99.90
2019-04-28T02:11:05.017Z,99.90
2019-04-28T02:13:32.465Z,99.90
2019-04-28T02:16:00.111Z,99.90
2019-04-28T02:18:27.692Z,99.90
2019-04-28T02:21:02.799Z,99.90
2019-04-28T02:23:31.098Z,99.90
2019-04-28T02:25:59.744Z,99.90
2019-04-28T02:28:29.537Z,99.90
2019-04-28T02:30:56.737Z,99.90
2019-04-28T02:33:24.155Z,99.90
2019-04-28T02:35:51.617Z,99.90
2019-04-28T02:38:21.052Z,99.90
2019-04-28T02:40:50.311Z,99.90
2019-04-28T02:43:20.627Z,99.90
2019-04-28T02:45:52.984Z,99.90
2019-04-28T02:48:22.651Z,99.90
2019-04-28T02:50:55.950Z,99.90
2019-04-28T02:53:33.682Z,99.90
2019-04-28T02:56:01.283Z,99.90
2019-04-28T02:58:31.027Z,99.90
2019-04-28T03:01:06.650Z,99.90
2019-04-28T03:03:27.181Z,99.90
2019-04-28T03:05:54.687Z,99.90
2019-04-28T03:08:22.121Z,99.90
2019-04-28T03:10:50.907Z,99.90
2019-04-28T03:13:20.908Z,99.90
2019-04-28T03:15:47.981Z,99.90
2019-04-28T03:18:15.412Z,99.90
2019-04-28T03:20:42.831Z,99.90
2019-04-28T03:23:12.417Z,99.90
2019-04-28T03:26:07.874Z,99.90
2019-04-28T03:28:54.812Z,99.90
2019-04-28T03:32:04.198Z,99.90
2019-04-28T03:34:03.989Z,99.90
2019-04-28T03:36:33.017Z,99.90
2019-04-28T03:39:00.749Z,99.90
2019-04-28T03:41:30.871Z,99.90
2019-04-28T03:43:57.341Z,99.90
2019-04-28T03:46:30.119Z,99.90
2019-04-28T03:48:56.591Z,99.90
2019-04-28T03:51:24.023Z,99.90
2019-04-28T03:53:51.486Z,99.90
2019-04-28T03:56:20.956Z,99.90
2019-04-28T03:58:50.280Z,99.90
2019-04-28T04:01:20.445Z,99.90
2019-04-28T04:03:46.630Z,99.90
2019-04-28T04:06:14.048Z,99.90
2019-04-28T04:08:41.493Z,99.90
2019-04-28T04:11:24.167Z,99.90
2019-04-28T04:14:11.525Z,99.90
2019-04-28T04:16:50.437Z,99.90
2019-04-28T04:19:20.149Z,99.90
2019-04-28T04:21:47.093Z,99.90
2019-04-28T04:24:14.519Z,99.90
2019-04-28T04:26:42.010Z,99.90
2019-04-28T04:29:10.228Z,99.90
2019-04-28T04:31:37.752Z,99.90
2019-04-28T04:34:05.186Z,99.90
2019-04-28T04:36:32.656Z,99.90
2019-04-28T04:39:01.797Z,99.90
2019-04-28T04:41:30.534Z,99.90
2019-04-28T04:44:00.762Z,99.90
2019-04-28T04:46:27.333Z,99.90
2019-04-28T04:48:54.752Z,99.90
2019-04-28T04:51:22.235Z,99.90
2019-04-28T04:53:51.059Z,99.90
2019-04-28T04:56:21.022Z,99.90
2019-04-28T04:58:50.473Z,99.90
2019-04-28T05:01:43.271Z,99.90
2019-04-28T05:04:20.174Z,99.90
2019-04-28T05:06:49.531Z,99.90
2019-04-28T05:09:16.866Z,99.90
2019-04-28T05:11:44.392Z,99.90
2019-04-28T05:14:12.209Z,99.90
2019-04-28T05:16:40.092Z,99.90
2019-04-28T05:19:07.493Z,99.90
2019-04-28T05:21:34.984Z,99.90
2019-04-28T05:24:31.188Z,99.90
2019-04-28T05:26:59.595Z,99.90
2019-04-28T05:29:28.150Z,99.90
2019-04-28T05:31:59.721Z,99.90
2019-04-28T05:34:24.871Z,99.90
2019-04-28T05:36:52.283Z,99.90
2019-04-28T05:39:19.823Z,99.90
2019-04-28T05:41:47.226Z,99.90
2019-04-28T05:44:14.674Z,99.90
2019-04-28T05:46:42.150Z,99.90
2019-04-28T05:49:29.688Z,99.90
2019-04-28T05:52:01.316Z,99.90
2019-04-28T05:54:44.999Z,99.90
2019-04-28T05:57:27.192Z,99.90
2019-04-28T06:00:32.455Z,99.90
2019-04-28T06:03:01.212Z,99.90
2019-04-28T06:05:30.328Z,99.90
2019-04-28T06:08:10.002Z,99.90
2019-04-28T06:10:39.784Z,99.90
2019-04-28T06:13:09.911Z,99.90
2019-04-28T06:15:39.564Z,99.90
2019-04-28T06:18:07.306Z,99.90
2019-04-28T06:20:34.738Z,99.90
2019-04-28T06:23:02.170Z,99.90
2019-04-28T06:25:29.959Z,99.90
2019-04-28T06:27:57.790Z,99.90
2019-04-28T06:30:25.333Z,99.90
2019-04-28T06:33:07.293Z,99.90
2019-04-28T06:35:25.091Z,99.90
2019-04-28T06:37:52.612Z,99.90
2019-04-28T06:40:20.047Z,99.90
2019-04-28T06:42:47.523Z,99.90
2019-04-28T06:45:15.259Z,99.90
2019-04-28T06:47:42.783Z,99.90
2019-04-28T06:50:10.638Z,99.90
2019-04-28T06:52:40.268Z,99.90
2019-04-28T06:55:07.739Z,99.90
2019-04-28T06:57:35.318Z,99.90
2019-04-28T07:00:05.053Z,99.90
2019-04-28T07:02:32.562Z,99.90
2019-04-28T07:05:02.054Z,99.90
2019-04-28T07:07:29.635Z,99.90
2019-04-28T07:09:57.111Z,99.90
2019-04-28T07:12:24.574Z,99.90
2019-04-28T07:14:52.151Z,99.90
2019-04-28T07:17:19.654Z,99.90
2019-04-28T07:19:53.880Z,99.90
2019-04-28T07:22:24.125Z,99.90
2019-04-28T07:24:51.567Z,99.90
2019-04-28T07:27:22.145Z,99.90
2019-04-28T07:29:49.635Z,99.90
2019-04-28T07:32:17.088Z,99.90
2019-04-28T07:34:45.453Z,99.90
2019-04-28T07:37:12.915Z,99.90
2019-04-28T07:39:40.693Z,99.90
2019-04-28T07:42:08.180Z,99.90
2019-04-28T07:44:36.049Z,99.90
2019-04-28T07:47:04.208Z,99.90
2019-04-28T07:49:31.666Z,99.90
2019-04-28T07:52:28.012Z,99.90
2019-04-28T07:54:55.452Z,99.90
2019-04-28T07:57:24.164Z,99.90
2019-04-28T07:59:51.683Z,99.90
2019-04-28T08:02:19.331Z,99.90
2019-04-28T08:04:46.820Z,99.90
2019-04-28T08:07:14.708Z,99.90
2019-04-28T08:09:42.459Z,99.90
2019-04-28T08:12:11.562Z,99.90
2019-04-28T08:14:39.120Z,99.90
2019-04-28T08:17:06.944Z,99.90
2019-04-28T08:19:36.834Z,99.90
2019-04-28T08:22:04.342Z,99.90
2019-04-28T08:24:31.963Z,99.90
2019-04-28T08:26:59.423Z,99.90
2019-04-28T08:29:26.954Z,99.90
2019-04-28T08:32:05.457Z,99.90
2019-04-28T08:34:32.968Z,99.90
2019-04-28T08:37:00.662Z,99.90
2019-04-28T08:39:28.462Z,99.90
2019-04-28T08:41:57.685Z,99.90
2019-04-28T08:44:25.072Z,99.90
2019-04-28T08:46:52.580Z,99.90
2019-04-28T08:49:22.308Z,99.90
2019-04-28T08:51:51.740Z,99.90
2019-04-28T08:54:19.218Z,99.90
2019-04-28T08:56:46.660Z,99.30
2019-04-28T08:59:14.682Z,99.90
2019-04-28T09:01:42.116Z,99.90
2019-04-28T09:04:15.575Z,99.90
2019-04-28T09:06:42.098Z,99.90
2019-04-28T09:09:13.512Z,99.90
2019-04-28T09:11:41.321Z,99.70
2019-04-28T09:14:09.143Z,99.10
2019-04-28T09:16:37.764Z,99.80
2019-04-28T09:19:05.243Z,99.90
2019-04-28T09:21:32.703Z,99.90
2019-04-28T09:24:00.204Z,99.90
2019-04-28T09:26:27.692Z,99.90
2019-04-28T09:28:55.158Z,99.90
2019-04-28T09:31:22.634Z,99.90
2019-04-28T09:33:52.346Z,98.90
2019-04-28T09:36:19.804Z,99.30
2019-04-28T09:38:47.247Z,99.80
2019-04-28T09:41:14.720Z,99.90
2019-04-28T09:44:10.770Z,99.90
2019-04-28T09:46:40.059Z,99.10
2019-04-28T09:49:07.553Z,97.70
2019-04-28T09:51:34.995Z,97.00
2019-04-28T09:54:02.453Z,95.80
2019-04-28T09:56:29.963Z,96.80
2019-04-28T09:58:57.876Z,97.90
2019-04-28T10:01:25.621Z,96.70
2019-04-28T10:03:53.105Z,96.50
2019-04-28T10:06:20.547Z,96.20
2019-04-28T10:08:48.094Z,96.00
2019-04-28T10:11:15.543Z,94.80
2019-04-28T10:13:43.042Z,93.30
2019-04-28T10:16:10.846Z,93.50
2019-04-28T10:18:38.282Z,91.70
2019-04-28T10:21:05.796Z,90.80
2019-04-28T10:23:33.252Z,91.60
2019-04-28T10:26:01.067Z,93.60
2019-04-28T10:28:28.521Z,94.80
2019-04-28T10:30:56.002Z,95.30
2019-04-28T10:33:23.460Z,97.00
2019-04-28T10:35:50.909Z,98.30
2019-04-28T10:38:18.388Z,99.70
2019-04-28T10:40:52.188Z,99.90
2019-04-28T10:43:19.636Z,99.90
2019-04-28T10:45:48.376Z,99.90
2019-04-28T10:48:15.914Z,99.90
2019-04-28T10:50:43.435Z,99.90
2019-04-28T10:53:10.877Z,99.90
2019-04-28T10:55:38.338Z,99.90
2019-04-28T10:58:05.888Z,99.90
2019-04-28T11:00:34.577Z,99.90
2019-04-28T11:03:02.017Z,99.90
2019-04-28T11:05:35.287Z,99.90
2019-04-28T11:08:04.364Z,99.90
2019-04-28T11:10:31.814Z,99.90
2019-04-28T11:12:59.320Z,99.90
2019-04-28T11:15:33.763Z,99.90
2019-04-28T11:18:01.554Z,99.90
2019-04-28T11:20:29.023Z,99.90
2019-04-28T11:22:56.485Z,99.90
2019-04-28T11:25:24.006Z,99.90
2019-04-28T11:27:51.437Z,99.90
2019-04-28T11:30:19.195Z,99.90
2019-04-28T11:33:01.416Z,98.30
2019-04-28T11:35:30.172Z,96.50
2019-04-28T11:37:57.620Z,95.00
2019-04-28T11:40:25.153Z,94.40
2019-04-28T11:42:52.623Z,94.70
2019-04-28T11:45:20.289Z,93.20
2019-04-28T11:47:47.739Z,92.20
2019-04-28T11:50:15.239Z,90.80
2019-04-28T11:52:42.812Z,93.60
2019-04-28T11:55:10.536Z,91.90
2019-04-28T11:57:38.087Z,91.60
2019-04-28T12:00:13.718Z,94.20
2019-04-28T12:02:41.267Z,94.30
2019-04-28T12:05:08.719Z,96.50
2019-04-28T12:07:36.171Z,96.60
2019-04-28T12:10:14.587Z,96.50
2019-04-28T12:13:01.687Z,94.70
2019-04-28T12:15:47.047Z,93.50
2019-04-28T12:18:36.519Z,91.60
2019-04-28T12:21:03.963Z,91.40
2019-04-28T12:23:31.401Z,90.90
2019-04-28T12:25:59.070Z,90.00
2019-04-28T12:28:26.567Z,90.70
2019-04-28T12:30:54.091Z,93.30
2019-04-28T12:33:21.550Z,93.10
2019-04-28T12:35:49.001Z,92.40
2019-04-28T12:38:17.102Z,90.60
2019-04-28T12:40:44.593Z,92.50
2019-04-28T12:43:12.038Z,91.00
2019-04-28T12:45:39.463Z,85.60
2019-04-28T12:48:06.970Z,83.80
2019-04-28T12:50:40.437Z,81.40
2019-04-28T12:53:07.928Z,74.60
2019-04-28T12:55:35.377Z,69.00
2019-04-28T12:58:04.007Z,68.40
2019-04-28T13:01:00.156Z,67.30
2019-04-28T13:03:50.117Z,67.00
2019-04-28T13:06:18.084Z,70.30
2019-04-28T13:08:45.563Z,69.10
2019-04-28T13:11:12.981Z,65.00
2019-04-28T13:13:40.564Z,61.40
2019-04-28T13:16:08.036Z,59.70
2019-04-28T13:18:35.476Z,59.90
2019-04-28T13:21:02.900Z,60.80
2019-04-28T13:23:30.356Z,62.60
2019-04-28T13:25:57.802Z,60.10
2019-04-28T13:28:25.218Z,59.70
2019-04-28T13:30:52.639Z,56.80
2019-04-28T13:33:20.134Z,55.90
2019-04-28T13:35:47.549Z,52.40
2019-04-28T13:38:15.081Z,50.40
2019-04-28T13:40:42.577Z,51.30
2019-04-28T13:43:10.034Z,51.70
2019-04-28T13:45:37.495Z,49.70
2019-04-28T13:48:05.125Z,48.50
2019-04-28T13:50:36.442Z,45.90
2019-04-28T13:53:04.907Z,44.60
2019-04-28T13:56:04.132Z,45.20
2019-04-28T13:58:54.705Z,44.20
2019-04-28T14:01:47.807Z,47.30
2019-04-28T14:04:33.780Z,51.80
2019-04-28T14:07:03.349Z,54.70
2019-04-28T14:09:30.802Z,53.90
2019-04-28T14:11:58.232Z,57.50
2019-04-28T14:14:25.682Z,57.50
2019-04-28T14:16:53.261Z,58.90
2019-04-28T14:19:20.729Z,61.40
2019-04-28T14:21:48.192Z,64.30
2019-04-28T14:24:15.627Z,65.60
2019-04-28T14:26:43.056Z,67.30
2019-04-28T14:29:10.560Z,64.80
2019-04-28T14:31:37.950Z,61.20
2019-04-28T14:34:05.356Z,58.00
2019-04-28T14:36:41.862Z,58.80
2019-04-28T14:39:04.926Z,58.00
2019-04-28T14:41:32.386Z,61.40
2019-04-28T14:43:59.869Z,63.50
2019-04-28T14:46:27.315Z,68.30
2019-04-28T14:48:54.802Z,70.30
2019-04-28T14:51:22.244Z,70.10
2019-04-28T14:53:49.729Z,72.00
2019-04-28T14:56:17.174Z,72.60
2019-04-28T14:58:44.657Z,72.40
2019-04-28T15:01:24.530Z,73.00
2019-04-28T15:03:54.157Z,73.20
2019-04-28T15:06:30.231Z,75.20
2019-04-28T15:09:15.990Z,73.10
2019-04-28T15:11:50.063Z,75.30
2019-04-28T15:14:17.521Z,73.40
2019-04-28T15:16:44.979Z,75.50
2019-04-28T15:19:12.469Z,76.20
2019-04-28T15:21:39.911Z,74.30
2019-04-28T15:24:07.358Z,73.30
2019-04-28T15:26:34.803Z,73.00
2019-04-28T15:29:02.231Z,73.50
2019-04-28T15:31:29.707Z,75.90
2019-04-28T15:33:57.476Z,76.50
2019-04-28T15:36:24.888Z,77.20
2019-04-28T15:38:52.309Z,76.80
2019-04-28T15:41:21.669Z,77.70
2019-04-28T15:43:49.357Z,77.00
2019-04-28T15:46:16.919Z,75.50
2019-04-28T15:48:44.373Z,73.30
2019-04-28T15:51:11.843Z,70.60
2019-04-28T15:53:39.544Z,63.00
2019-04-28T15:56:25.361Z,58.30
2019-04-28T15:58:52.820Z,56.70
2019-04-28T16:01:20.262Z,53.80
2019-04-28T16:03:47.699Z,52.70
2019-04-28T16:06:15.143Z,51.30
2019-04-28T16:08:42.565Z,52.00
2019-04-28T16:11:10.346Z,49.90
2019-04-28T16:13:37.805Z,49.60
2019-04-28T16:16:05.267Z,48.60
2019-04-28T16:18:32.746Z,48.60
2019-04-28T16:21:00.190Z,50.60
2019-04-28T16:23:27.702Z,49.60
2019-04-28T16:25:55.129Z,51.60
2019-04-28T16:28:22.587Z,55.50
2019-04-28T16:30:50.047Z,58.20
2019-04-28T16:33:17.577Z,58.00
2019-04-28T16:35:44.938Z,56.20
2019-04-28T16:38:12.363Z,54.10
2019-04-28T16:40:39.822Z,51.60
2019-04-28T16:43:07.248Z,49.90
2019-04-28T16:45:34.680Z,49.10
2019-04-28T16:48:02.154Z,51.10
2019-04-28T16:50:29.583Z,50.50
2019-04-28T16:52:57.056Z,49.90
2019-04-28T16:55:30.944Z,52.50
2019-04-28T16:58:32.891Z,55.20
2019-04-28T17:01:14.748Z,57.50
2019-04-28T17:03:42.215Z,59.70
2019-04-28T17:06:09.667Z,60.40
2019-04-28T17:08:37.105Z,61.10
2019-04-28T17:11:04.591Z,61.50
2019-04-28T17:13:32.035Z,63.40
2019-04-28T17:15:59.504Z,62.80
2019-04-28T17:18:26.977Z,66.40
2019-04-28T17:20:55.214Z,66.80
2019-04-28T17:23:22.694Z,67.50
2019-04-28T17:25:50.238Z,70.00
2019-04-28T17:28:18.040Z,71.20
2019-04-28T17:30:45.475Z,72.20
2019-04-28T17:33:12.940Z,73.30
2019-04-28T17:35:40.420Z,72.70
2019-04-28T17:38:07.870Z,74.30
2019-04-28T17:40:35.880Z,76.40
2019-04-28T17:43:03.322Z,80.20
2019-04-28T17:45:30.805Z,82.90
2019-04-28T17:48:03.184Z,86.50
2019-04-28T17:50:31.026Z,87.20
2019-04-28T17:52:58.577Z,90.00
2019-04-28T17:55:26.002Z,90.90
2019-04-28T17:57:53.451Z,91.70
2019-04-28T18:00:37.207Z,92.00
2019-04-28T18:03:20.999Z,92.20
2019-04-28T18:05:54.555Z,93.10
2019-04-28T18:08:21.970Z,93.50
2019-04-28T18:10:49.424Z,94.40
2019-04-28T18:13:16.878Z,95.60
2019-04-28T18:16:04.087Z,95.60
2019-04-28T18:18:44.089Z,96.50
2019-04-28T18:21:11.558Z,97.20
2019-04-28T18:23:38.968Z,98.40
2019-04-28T18:26:06.427Z,98.60
2019-04-28T18:28:33.870Z,98.80
2019-04-28T18:31:25.769Z,98.60
2019-04-28T18:34:11.583Z,98.30
2019-04-28T18:36:46.190Z,98.20
2019-04-28T18:39:33.474Z,98.50
2019-04-28T18:42:26.487Z,98.90
2019-04-28T18:44:54.115Z,99.50
2019-04-28T18:47:21.591Z,99.80
2019-04-28T18:49:49.212Z,99.90
2019-04-28T18:52:16.818Z,99.90
2019-04-28T18:54:44.245Z,99.90
2019-04-28T18:57:11.713Z,99.90
2019-04-28T18:59:39.210Z,99.90
2019-04-28T19:02:13.780Z,99.90
2019-04-28T19:04:41.223Z,99.90
2019-04-28T19:07:11.003Z,99.90
2019-04-28T19:09:57.953Z,99.90
2019-04-28T19:12:37.398Z,99.90
2019-04-28T19:15:23.151Z,99.90
2019-04-28T19:17:57.704Z,99.90
2019-04-28T19:20:25.133Z,99.90
2019-04-28T19:22:52.555Z,99.90
2019-04-28T19:25:20.256Z,99.90
2019-04-28T19:27:47.723Z,99.90
2019-04-28T19:30:15.346Z,99.90
2019-04-28T19:32:42.967Z,99.90
2019-04-28T19:35:10.947Z,99.90
2019-04-28T19:37:38.823Z,99.90
2019-04-28T19:40:06.581Z,99.90
2019-04-28T19:42:34.167Z,99.90
2019-04-28T19:45:02.120Z,99.90
2019-04-28T19:47:29.708Z,99.90
2019-04-28T19:49:57.256Z,99.90
2019-04-28T19:52:24.786Z,99.90
2019-04-28T19:55:08.780Z,99.90
2019-04-28T19:57:53.879Z,99.90
2019-04-28T20:00:31.571Z,99.90
2019-04-28T20:02:59.051Z,99.90
2019-04-28T20:05:26.479Z,99.90
2019-04-28T20:07:54.018Z,99.90
2019-04-28T20:10:21.506Z,99.90
2019-04-28T20:12:49.036Z,99.90
2019-04-28T20:15:16.671Z,99.90
2019-04-28T20:17:44.201Z,99.90
2019-04-28T20:20:11.849Z,99.90
2019-04-28T20:22:39.351Z,99.90
2019-04-28T20:25:06.921Z,99.90
2019-04-28T20:27:34.426Z,99.90
2019-04-28T20:30:02.144Z,99.90
2019-04-28T20:32:32.247Z,99.90
2019-04-28T20:34:59.749Z,99.90
2019-04-28T20:37:35.042Z,99.90
2019-04-28T20:40:07.549Z,99.90
2019-04-28T20:42:42.898Z,99.90
2019-04-28T20:45:11.106Z,99.90
2019-04-28T20:47:41.121Z,99.90
2019-04-28T20:50:08.982Z,99.90
2019-04-28T20:52:36.505Z,99.90
2019-04-28T20:55:04.015Z,99.90
2019-04-28T20:57:31.508Z,99.90
2019-04-28T20:59:59.015Z,99.90
2019-04-28T21:02:26.561Z,99.90
2019-04-28T21:04:54.146Z,99.90
2019-04-28T21:07:21.591Z,99.90
2019-04-28T21:09:49.080Z,99.90
2019-04-28T21:12:16.517Z,99.90
2019-04-28T21:14:43.980Z,99.90
2019-04-28T21:17:11.475Z,99.90
2019-04-28T21:19:38.886Z,99.90
2019-04-28T21:22:06.306Z,99.90
2019-04-28T21:24:33.750Z,99.90
2019-04-28T21:27:01.204Z,99.90
2019-04-28T21:29:28.621Z,99.90
2019-04-28T21:31:56.074Z,99.90
2019-04-28T21:34:23.525Z,99.90
2019-04-28T21:36:51.236Z,99.90
2019-04-28T21:39:18.731Z,99.90
2019-04-28T21:41:46.153Z,99.90
2019-04-28T21:44:33.144Z,99.90
2019-04-28T21:47:06.187Z,99.90
2019-04-28T21:49:36.595Z,99.90
2019-04-28T21:52:04.079Z,99.90
2019-04-28T21:54:31.519Z,99.90
2019-04-28T21:56:59.038Z,99.90
2019-04-28T21:59:26.446Z,99.90
2019-04-28T22:01:54.155Z,99.90
2019-04-28T22:04:21.578Z,99.90
2019-04-28T22:06:48.990Z,99.90
2019-04-28T22:09:16.954Z,99.90
2019-04-28T22:11:44.401Z,99.90
2019-04-28T22:14:11.808Z,99.90
2019-04-28T22:16:39.574Z,99.90
2019-04-28T22:19:07.086Z,99.90
2019-04-28T22:21:34.507Z,99.90
2019-04-28T22:24:12.802Z,99.90
2019-04-28T22:26:44.544Z,99.90
2019-04-28T22:29:12.254Z,99.90
2019-04-28T22:31:40.011Z,99.90
2019-04-28T22:34:07.443Z,99.90
2019-04-28T22:36:34.887Z,99.90
2019-04-28T22:39:02.329Z,99.90
2019-04-28T22:41:29.826Z,99.90
2019-04-28T22:43:57.282Z,99.90
2019-04-28T22:46:24.745Z,99.90
2019-04-28T22:48:53.986Z,99.90
2019-04-28T22:51:21.450Z,99.90
2019-04-28T22:53:49.239Z,99.90
2019-04-28T22:56:33.484Z,99.90
2019-04-28T22:59:05.160Z,99.90
2019-04-28T23:01:36.145Z,99.90
2019-04-28T23:04:15.067Z,99.90
2019-04-28T23:06:42.491Z,99.90
2019-04-28T23:09:12.861Z,99.90
2019-04-28T23:11:40.415Z,99.90
2019-04-28T23:14:08.177Z,99.90
2019-04-28T23:16:35.610Z,99.90
2019-04-28T23:19:04.968Z,99.90
2019-04-28T23:21:58.194Z,99.90
2019-04-28T23:24:25.636Z,99.90
2019-04-28T23:26:53.057Z,99.90
2019-04-28T23:29:20.491Z,99.90
2019-04-28T23:31:47.944Z,99.90
2019-04-28T23:34:15.354Z,99.90
2019-04-28T23:36:42.794Z,99.90
2019-04-28T23:42:09.741Z,99.90
2019-04-28T23:44:37.190Z,99.90
2019-04-28T23:47:06.300Z,99.90
2019-04-28T23:49:33.791Z,99.90
2019-04-28T23:52:29.915Z,99.90
2019-04-28T23:54:59.534Z,99.90
2019-04-28T23:57:26.958Z,99.90
2019-04-28T23:59:54.372Z,99.90
